EDHL Airport Information

Runway Information
Runway 07 Length 6896 ft width 197 ft
Elevation 53 ft Threshold 984 ft Heading 72
Runway 25 Length 6896 ft Width 197 ft
Elevation 47 ft Threshold ft Heading 252
Airport Frequencies
Type AFIS Name BREMEN INF Frequency 125.1 MHZ
Type ATIS Name ATIS Frequency 119.925 MHZ
Type GND Name GND Frequency 121.775 MHZ
Type INFO Name INFO Frequency 128.7 MHZ
Type RDR Name BREMEN RAD Frequency 124.225 MHZ
Type TWR Name TWR Frequency 128.7 MHZ
Airport Navaids
Type VOR Name Lubeck Frequency 110600 KHZ
Type DME Name Lubeck Blankensee Frequency 115650 KHZ
Type NDB Name Lubeck Blankensee Frequency 394 KHZ
Airport Weather Information & NOTAM
ADDS - METARS form results

(1202 UTC 27 September 2022)
Data provider http://aviationweather.gov/metar/data/
 
METAR text: EDHL 271150Z 26007KT 170V320 9999 -RA SCT009 BKN011 BKN029 11/10 Q0992
Conditions at: EDHL (LUEBECK/BLANKENS, DE) observed 1150 UTC 27 September 2022
Temperature: 11.0°C (52°F)
Dewpoint: 10.0°C (50°F) [RH = 94%]
Pressure (altimeter): 29.29 inches Hg (992.0 mb)
Winds: from the W (260 degrees) at 8 MPH (7 knots; 3.6 m/s)
Visibility: 6 or more miles (10+ km)
Ceiling: 1100 feet AGL
Clouds: scattered clouds at 900 feet AGL
broken clouds at 1100 feet AGL
broken clouds at 2900 feet AGL
Weather: -RA  (light rain)

METAR text: EDHL 271120Z 26006KT 210V310 9999 -RA SCT009 BKN021 11/10 Q0992
Conditions at: EDHL (LUEBECK/BLANKENS, DE) observed 1120 UTC 27 September 2022
Temperature: 11.0°C (52°F)
Dewpoint: 10.0°C (50°F) [RH = 94%]
Pressure (altimeter): 29.29 inches Hg (992.0 mb)
Winds: from the W (260 degrees) at 7 MPH (6 knots; 3.1 m/s)
Visibility: 6 or more miles (10+ km)
Ceiling: 2100 feet AGL
Clouds: scattered clouds at 900 feet AGL
broken clouds at 2100 feet AGL
Weather: -RA  (light rain)

Forecast for: EDHL (LUEBECK/BLANKENS, DE)
Text: TAF EDHL 271100Z 2712/2721 25005KT 9999 SCT007 BKN012
Forecast period: 1200 to 2100 UTC 27 September 2022
Forecast type: FROM: standard forecast or significant change
Winds: from the WSW (250 degrees) at 6 MPH (5 knots; 2.6 m/s)
Visibility: 6 or more miles (10+ km)
Ceiling: 1200 feet AGL
Clouds: scattered clouds at 700 feet AGL
broken clouds at 1200 feet AGL
Weather: no significant weather forecast for this period
Text: TEMPO 2712/2721 4500 RA BKN007
Forecast period: 1200 to 2100 UTC 27 September 2022
Forecast type: TEMPORARY: The following changes expected for less than half the time period
Visibility: 2.80 miles (4.51 km)
Ceiling: 700 feet AGL
Clouds: broken clouds at 700 feet AGL
Weather: RA  (moderate rain)
Text: PROB30
Forecast period: 1200 to 1900 UTC 27 September 2022
Forecast type: TEMPORARY: The following changes expected for less than half the time period
Visibility: missing
Ceiling: 400 feet AGL
Clouds: broken clouds at 400 feet AGL
Weather: no significant weather forecast for this period